createdAt,value
2023-04-22T00:02:21.249Z,18.30
2023-04-22T00:05:11.792Z,18.34
2023-04-22T00:11:03.944Z,18.72
2023-04-22T00:14:39.139Z,18.25
2023-04-22T00:17:22.424Z,18.41
2023-04-22T00:20:29.127Z,18.40
2023-04-22T00:23:32.153Z,18.69
2023-04-22T00:26:22.933Z,18.23
2023-04-22T00:29:16.527Z,18.13
2023-04-22T00:35:32.959Z,18.42
2023-04-22T00:38:16.527Z,18.32
2023-04-22T00:43:59.291Z,18.32
2023-04-22T00:47:07.809Z,18.10
2023-04-22T00:49:46.840Z,18.26
2023-04-22T00:52:13.468Z,18.29
2023-04-22T00:54:43.796Z,18.35
2023-04-22T00:57:27.806Z,18.58
2023-04-22T01:00:24.660Z,18.15
2023-04-22T01:07:19.834Z,18.03
2023-04-22T01:11:23.046Z,18.07
2023-04-22T01:13:17.048Z,17.99
2023-04-22T01:16:36.482Z,18.22
2023-04-22T01:18:59.590Z,18.32
2023-04-22T01:22:08.624Z,18.09
2023-04-22T01:24:55.935Z,18.14
2023-04-22T01:27:54.923Z,18.30
2023-04-22T01:30:21.695Z,18.47
2023-04-22T01:33:09.994Z,18.32
2023-04-22T01:35:52.428Z,18.37
2023-04-22T01:38:29.809Z,18.37
2023-04-22T01:41:16.237Z,18.28
2023-04-22T01:46:55.550Z,18.28
2023-04-22T01:49:22.224Z,18.25
2023-04-22T01:51:59.496Z,18.28
2023-04-22T01:54:33.695Z,18.26
2023-04-22T01:57:08.377Z,18.35
2023-04-22T01:59:44.138Z,18.32
2023-04-22T02:02:31.763Z,18.36
2023-04-22T02:05:13.656Z,18.21
2023-04-22T02:07:42.746Z,18.16
2023-04-22T02:10:27.115Z,18.20
2023-04-22T02:13:08.630Z,18.18
2023-04-22T02:15:44.830Z,18.29
2023-04-22T02:18:25.564Z,18.28
2023-04-22T02:21:13.332Z,18.15
2023-04-22T02:26:50.176Z,18.11
2023-04-22T02:29:25.041Z,18.11
2023-04-22T02:34:40.249Z,18.21
2023-04-22T02:37:23.560Z,18.07
2023-04-22T02:39:52.944Z,18.20
2023-04-22T02:42:26.454Z,18.10
2023-04-22T02:47:38.567Z,18.10
2023-04-22T02:50:27.057Z,18.15
2023-04-22T02:53:10.842Z,18.17
2023-04-22T02:55:47.805Z,18.14
2023-04-22T02:58:19.755Z,18.14
2023-04-22T03:00:51.812Z,18.10
2023-04-22T03:03:28.332Z,18.17
2023-04-22T03:11:53.463Z,18.12
2023-04-22T03:14:22.708Z,18.02
2023-04-22T03:16:56.783Z,18.01
2023-04-22T03:19:28.381Z,18.03
2023-04-22T03:21:56.664Z,18.13
2023-04-22T03:24:29.838Z,18.04
2023-04-22T03:27:10.798Z,18.00
2023-04-22T03:29:37.677Z,17.97
2023-04-22T03:37:42.019Z,18.02
2023-04-22T03:40:22.733Z,18.00
2023-04-22T03:42:56.620Z,17.96
2023-04-22T03:48:21.847Z,18.04
2023-04-22T03:50:50.580Z,17.94
2023-04-22T03:54:07.578Z,17.98
2023-04-22T03:56:46.812Z,17.94
2023-04-22T03:59:25.082Z,17.93
2023-04-22T04:02:05.516Z,17.96
2023-04-22T04:04:51.700Z,17.90
2023-04-22T04:07:24.916Z,18.02
2023-04-22T04:09:53.850Z,17.91
2023-04-22T04:15:13.335Z,17.91
2023-04-22T04:17:44.769Z,17.90
2023-04-22T04:20:22.837Z,17.96
2023-04-22T04:23:04.280Z,17.85
2023-04-22T04:25:40.694Z,17.79
2023-04-22T04:28:23.915Z,17.84
2023-04-22T04:33:45.709Z,17.79
2023-04-22T04:36:21.988Z,17.79
2023-04-22T04:38:48.964Z,17.85
2023-04-22T04:41:29.891Z,17.78
2023-04-22T04:44:07.678Z,17.81
2023-04-22T04:49:24.835Z,17.82
2023-04-22T04:55:09.697Z,17.83
2023-04-22T05:00:26.671Z,17.77
2023-04-22T05:02:59.104Z,17.78
2023-04-22T05:05:30.268Z,17.77
2023-04-22T05:08:02.783Z,17.81
2023-04-22T05:10:41.352Z,17.81
2023-04-22T05:13:16.255Z,17.76
2023-04-22T05:16:10.898Z,17.81
2023-04-22T05:18:53.558Z,17.84
2023-04-22T05:21:27.980Z,17.82
2023-04-22T05:23:57.352Z,17.78
2023-04-22T05:29:21.517Z,17.76
2023-04-22T05:31:50.979Z,17.85
2023-04-22T05:34:31.091Z,17.76
2023-04-22T05:37:18.656Z,17.74
2023-04-22T05:39:55.235Z,17.73
2023-04-22T05:42:27.399Z,17.85
2023-04-22T05:50:35.836Z,17.86
2023-04-22T05:53:04.902Z,17.80
2023-04-22T05:58:41.001Z,17.74
2023-04-22T06:01:18.706Z,17.77
2023-04-22T06:03:47.552Z,17.73
2023-04-22T06:06:19.169Z,17.86
2023-04-22T06:08:53.136Z,17.70
2023-04-22T06:11:43.280Z,17.71
2023-04-22T06:14:18.617Z,17.84
2023-04-22T06:16:54.701Z,17.84
2023-04-22T06:19:24.370Z,17.74
2023-04-22T06:21:54.028Z,17.72
2023-04-22T06:27:16.482Z,17.83
2023-04-22T06:29:55.246Z,17.69
2023-04-22T06:32:29.403Z,17.86
2023-04-22T06:35:37.529Z,17.85
2023-04-22T06:38:04.088Z,17.77
2023-04-22T06:40:44.412Z,17.80
2023-04-22T06:43:19.870Z,17.80
2023-04-22T06:46:13.079Z,17.75
2023-04-22T06:48:47.321Z,17.79
2023-04-22T06:51:14.063Z,17.81
2023-04-22T06:53:53.559Z,17.83
2023-04-22T06:56:27.944Z,17.84
2023-04-22T06:58:59.441Z,17.88
2023-04-22T07:01:33.831Z,17.81
2023-04-22T07:04:06.663Z,17.85
2023-04-22T07:06:37.920Z,17.86
2023-04-22T07:09:19.826Z,17.91
2023-04-22T07:15:19.160Z,17.96
2023-04-22T07:17:53.586Z,17.90
2023-04-22T07:20:23.024Z,18.01
2023-04-22T07:22:55.405Z,17.94
2023-04-22T07:25:26.715Z,18.01
2023-04-22T07:34:21.717Z,18.05
2023-04-22T07:37:08.104Z,18.05
2023-04-22T07:39:52.796Z,18.03
2023-04-22T07:42:28.821Z,18.12
2023-04-22T07:45:26.526Z,18.01
2023-04-22T07:48:03.531Z,18.10
2023-04-22T07:50:41.221Z,18.10
2023-04-22T07:58:57.257Z,18.15
2023-04-22T08:01:37.222Z,18.30
2023-04-22T08:04:17.124Z,18.27
2023-04-22T08:06:51.776Z,18.37
2023-04-22T08:09:36.258Z,18.19
2023-04-22T08:15:10.576Z,18.27
2023-04-22T08:23:30.318Z,18.20
2023-04-22T08:26:29.313Z,18.27
2023-04-22T08:40:55.851Z,18.51
2023-04-22T08:43:55.398Z,18.62
2023-04-22T08:58:11.020Z,18.69
2023-04-22T09:01:47.336Z,18.68
2023-04-22T09:13:45.594Z,18.73
2023-04-22T09:16:23.676Z,18.84
2023-04-22T09:19:00.497Z,18.74
2023-04-22T09:21:33.744Z,18.76
2023-04-22T09:24:36.803Z,18.73
2023-04-22T09:27:38.964Z,18.76
2023-04-22T09:33:50.085Z,18.82
2023-04-22T09:36:54.888Z,18.88
2023-04-22T09:39:41.963Z,18.81
2023-04-22T09:51:26.947Z,18.97
2023-04-22T10:00:52.287Z,18.97
2023-04-22T10:03:42.305Z,19.02
2023-04-22T10:06:24.031Z,19.05
2023-04-22T10:09:39.902Z,19.09
2023-04-22T10:13:25.236Z,19.10
2023-04-22T10:22:41.737Z,19.35
2023-04-22T10:25:37.913Z,19.44
2023-04-22T10:31:49.156Z,19.43
2023-04-22T10:38:18.193Z,19.45
2023-04-22T10:41:13.394Z,19.44
2023-04-22T10:44:25.920Z,19.45
2023-04-22T10:47:25.590Z,19.56
2023-04-22T10:49:52.623Z,19.60
2023-04-22T10:52:32.494Z,19.65
2023-04-22T10:55:00.462Z,19.69
2023-04-22T10:57:53.986Z,19.72
2023-04-22T11:00:38.605Z,19.76
2023-04-22T11:03:15.537Z,19.79
2023-04-22T11:05:42.865Z,19.79
2023-04-22T11:08:16.657Z,19.83
2023-04-22T11:10:46.345Z,19.84
2023-04-22T11:13:21.437Z,19.80
2023-04-22T11:15:50.524Z,19.84
2023-04-22T11:18:22.464Z,19.82
2023-04-22T11:20:50.723Z,19.79
2023-04-22T11:23:19.851Z,19.75
2023-04-22T11:25:46.689Z,19.70
2023-04-22T11:28:13.371Z,19.71
2023-04-22T11:30:40.052Z,19.69
2023-04-22T11:33:06.671Z,19.69
2023-04-22T11:35:34.767Z,19.67
2023-04-22T11:38:02.465Z,19.68
2023-04-22T11:40:37.583Z,19.69
2023-04-22T11:43:07.866Z,19.70
2023-04-22T11:45:36.155Z,19.68
2023-04-22T11:48:04.784Z,19.67
2023-04-22T11:50:33.864Z,19.64
2023-04-22T11:53:05.204Z,19.63
2023-04-22T11:55:38.346Z,19.61
2023-04-22T11:58:13.293Z,19.60
2023-04-22T12:00:45.094Z,19.57
2023-04-22T12:03:18.867Z,19.57
2023-04-22T12:05:47.820Z,19.55
2023-04-22T12:08:16.960Z,19.57
2023-04-22T12:10:50.551Z,19.57
2023-04-22T12:13:26.322Z,19.60
2023-04-22T12:15:59.949Z,19.56
2023-04-22T12:18:30.784Z,19.57
2023-04-22T12:21:17.901Z,19.58
2023-04-22T12:24:11.303Z,19.58
2023-04-22T12:26:37.969Z,19.57
2023-04-22T12:29:05.204Z,19.61
2023-04-22T12:31:31.801Z,19.63
2023-04-22T12:33:59.917Z,19.62
2023-04-22T12:36:26.668Z,19.60
2023-04-22T12:38:53.215Z,19.62
2023-04-22T12:41:19.807Z,19.60
2023-04-22T12:43:46.479Z,19.58
2023-04-22T12:46:13.136Z,19.60
2023-04-22T12:48:39.822Z,19.60
2023-04-22T12:51:07.010Z,19.62
2023-04-22T12:53:34.050Z,19.61
2023-04-22T12:56:00.691Z,19.59
2023-04-22T12:58:27.260Z,19.59
2023-04-22T13:00:53.857Z,19.59
2023-04-22T13:03:20.858Z,19.56
2023-04-22T13:05:47.639Z,19.55
2023-04-22T13:08:14.227Z,19.55
2023-04-22T13:10:40.837Z,19.54
2023-04-22T13:15:38.913Z,19.52
2023-04-22T13:18:06.106Z,19.51
2023-04-22T13:20:32.820Z,19.52
2023-04-22T13:22:59.388Z,19.52
2023-04-22T13:25:25.964Z,19.53
2023-04-22T13:27:52.539Z,19.54
2023-04-22T13:33:04.688Z,19.47
2023-04-22T13:35:34.372Z,19.42
2023-04-22T13:38:35.797Z,19.60
2023-04-22T13:41:04.625Z,19.51
2023-04-22T13:44:23.439Z,19.50
2023-04-22T13:46:56.203Z,19.49
2023-04-22T13:49:47.051Z,19.53
2023-04-22T13:52:34.107Z,19.67
2023-04-22T13:55:11.492Z,19.57
2023-04-22T13:58:05.558Z,19.65
2023-04-22T14:00:37.705Z,19.56
2023-04-22T14:08:38.326Z,19.56
2023-04-22T14:14:03.831Z,19.63
2023-04-22T14:16:34.579Z,19.63
2023-04-22T14:19:15.431Z,19.71
2023-04-22T14:22:04.528Z,19.64
2023-04-22T14:24:39.426Z,19.63
2023-04-22T14:27:26.849Z,19.55
2023-04-22T14:30:02.533Z,19.62
2023-04-22T14:32:53.965Z,19.73
2023-04-22T14:35:34.448Z,19.57
2023-04-22T14:38:24.893Z,19.61
2023-04-22T14:41:05.639Z,19.70
2023-04-22T14:43:49.612Z,19.70
2023-04-22T14:46:39.967Z,19.65
2023-04-22T14:49:16.470Z,19.54
2023-04-22T14:51:43.276Z,19.62
2023-04-22T14:54:12.571Z,19.62
2023-04-22T14:59:40.183Z,19.61
2023-04-22T15:02:43.173Z,19.65
2023-04-22T15:05:29.899Z,19.61
2023-04-22T15:10:48.733Z,19.51
2023-04-22T15:13:26.168Z,19.63
2023-04-22T15:19:01.829Z,19.56
2023-04-22T15:21:33.772Z,19.64
2023-04-22T15:29:51.922Z,19.53
2023-04-22T15:33:21.218Z,19.66
2023-04-22T15:35:13.634Z,19.63
2023-04-22T15:37:56.850Z,19.69
2023-04-22T15:40:35.537Z,19.60
2023-04-22T15:43:27.334Z,19.57
2023-04-22T15:49:23.905Z,19.53
2023-04-22T15:57:35.984Z,19.58
2023-04-22T16:00:25.340Z,19.65
2023-04-22T16:03:04.522Z,19.46
2023-04-22T16:11:14.407Z,19.46
2023-04-22T16:14:04.526Z,19.47
2023-04-22T16:19:23.974Z,19.48
2023-04-22T16:21:53.920Z,19.57
2023-04-22T16:24:20.525Z,19.62
2023-04-22T16:26:47.130Z,19.60
2023-04-22T16:29:16.542Z,19.60
2023-04-22T16:31:47.196Z,19.44
2023-04-22T16:34:56.708Z,19.49
2023-04-22T16:37:25.874Z,19.42
2023-04-22T16:39:59.127Z,19.49
2023-04-22T16:42:40.552Z,19.46
2023-04-22T16:45:11.840Z,19.57
2023-04-22T16:47:40.744Z,19.44
2023-04-22T16:50:39.657Z,19.49
2023-04-22T16:53:22.179Z,19.40
2023-04-22T16:55:52.174Z,19.47
2023-04-22T16:58:39.422Z,19.51
2023-04-22T17:01:08.954Z,19.43
2023-04-22T17:03:41.108Z,19.41
2023-04-22T17:06:36.502Z,19.41
2023-04-22T17:09:12.666Z,19.46
2023-04-22T17:11:45.351Z,19.55
2023-04-22T17:14:17.432Z,19.39
2023-04-22T17:16:54.404Z,19.46
2023-04-22T17:19:33.836Z,19.47
2023-04-22T17:24:56.763Z,19.47
2023-04-22T17:27:41.474Z,19.43
2023-04-22T17:30:14.410Z,19.52
2023-04-22T17:33:00.721Z,19.51
2023-04-22T17:35:33.019Z,19.47
2023-04-22T17:38:03.921Z,19.46
2023-04-22T17:40:47.656Z,19.48
2023-04-22T17:43:32.684Z,19.50
2023-04-22T17:46:15.933Z,19.57
2023-04-22T17:48:49.294Z,19.53
2023-04-22T17:51:28.186Z,19.44
2023-04-22T17:54:20.620Z,19.42
2023-04-22T18:02:34.272Z,19.40
2023-04-22T18:05:17.836Z,19.43
2023-04-22T18:11:30.484Z,19.40
2023-04-22T18:14:45.851Z,19.54
2023-04-22T18:16:56.934Z,19.45
2023-04-22T18:19:30.917Z,19.44
2023-04-22T18:23:21.169Z,19.53
2023-04-22T18:38:36.929Z,19.50
2023-04-22T18:47:52.370Z,19.38
2023-04-22T18:50:34.634Z,19.42
2023-04-22T18:57:40.193Z,19.34
2023-04-22T19:00:21.951Z,19.40
2023-04-22T19:08:38.369Z,19.29
2023-04-22T19:17:25.686Z,19.33
2023-04-22T19:20:11.973Z,19.34
2023-04-22T19:22:41.052Z,19.40
2023-04-22T19:25:14.253Z,19.31
2023-04-22T19:27:48.645Z,19.32
2023-04-22T19:30:44.550Z,19.31
2023-04-22T19:33:49.999Z,19.29
2023-04-22T19:36:21.197Z,19.29
2023-04-22T19:38:50.449Z,19.27
2023-04-22T19:41:33.322Z,19.23
2023-04-22T19:50:42.210Z,19.37
2023-04-22T19:53:46.328Z,19.19
2023-04-22T19:56:33.925Z,19.30
2023-04-22T20:01:59.994Z,19.27
2023-04-22T20:10:26.242Z,19.22
2023-04-22T20:13:19.095Z,19.16
2023-04-22T20:19:19.554Z,19.15
2023-04-22T20:19:29.173Z,19.11
2023-04-22T20:22:02.189Z,19.26
2023-04-22T20:27:19.671Z,19.12
2023-04-22T20:30:01.402Z,19.22
2023-04-22T20:32:48.068Z,19.15
2023-04-22T20:35:23.207Z,19.13
2023-04-22T20:38:16.705Z,19.10
2023-04-22T20:41:26.837Z,19.16
2023-04-22T20:44:24.974Z,19.04
2023-04-22T20:46:54.740Z,18.98
2023-04-22T20:49:28.133Z,19.01
2023-04-22T20:52:21.994Z,19.05
2023-04-22T20:55:04.150Z,18.96
2023-04-22T20:57:46.285Z,18.99
2023-04-22T21:00:22.121Z,19.00
2023-04-22T21:02:52.612Z,19.06
2023-04-22T21:05:46.508Z,18.97
2023-04-22T21:08:51.145Z,18.93
2023-04-22T21:11:38.234Z,18.92
2023-04-22T21:14:11.862Z,18.99
2023-04-22T21:17:20.306Z,18.88
2023-04-22T21:20:22.583Z,18.91
2023-04-22T21:23:07.631Z,18.83
2023-04-22T21:25:44.879Z,18.82
2023-04-22T21:28:32.984Z,18.87
2023-04-22T21:31:16.297Z,18.85
2023-04-22T21:34:11.799Z,18.78
2023-04-22T21:37:00.476Z,18.89
2023-04-22T21:39:37.070Z,18.75
2023-04-22T21:44:55.281Z,18.89
2023-04-22T21:47:40.047Z,18.80
2023-04-22T21:50:42.848Z,18.72
2023-04-22T21:56:48.728Z,18.67
2023-04-22T22:02:26.457Z,18.71
2023-04-22T22:04:53.526Z,18.68
2023-04-22T22:07:43.467Z,18.62
2023-04-22T22:13:31.625Z,18.63
2023-04-22T22:16:01.321Z,18.61
2023-04-22T22:18:51.173Z,18.65
2023-04-22T22:21:23.342Z,18.61
2023-04-22T22:23:58.207Z,18.71
2023-04-22T22:27:05.512Z,18.62
2023-04-22T22:29:46.650Z,18.62
2023-04-22T22:32:21.649Z,18.58
2023-04-22T22:34:56.743Z,18.62
2023-04-22T22:37:48.376Z,18.53
2023-04-22T22:40:15.182Z,18.53
2023-04-22T22:42:41.959Z,18.55
2023-04-22T22:48:20.723Z,18.57
2023-04-22T22:51:11.177Z,18.59
2023-04-22T22:53:43.979Z,18.50
2023-04-22T22:59:17.093Z,18.51
2023-04-22T23:01:51.525Z,18.49
2023-04-22T23:04:33.794Z,18.47
2023-04-22T23:09:53.314Z,18.41
2023-04-22T23:12:40.858Z,18.44
2023-04-22T23:15:36.307Z,18.39
2023-04-22T23:18:11.818Z,18.49
2023-04-22T23:20:54.044Z,18.39
2023-04-22T23:26:19.987Z,18.35
2023-04-22T23:31:55.673Z,18.35
2023-04-22T23:34:41.492Z,18.42
2023-04-22T23:42:53.406Z,18.36
2023-04-22T23:45:28.340Z,18.38
2023-04-22T23:47:57.567Z,18.37
2023-04-22T23:50:34.225Z,18.31
2023-04-22T23:53:11.302Z,18.30
2023-04-22T23:56:05.927Z,18.34
2023-04-22T23:58:37.991Z,18.35
